Terminal Aerodrome Forecast
Issued by NWS

Home | Current Version | Previous Version | Text Only | Print | Product List | Glossary On
Versions: 1 2 3 4 5 6 7 8 9 10 11 12 13 14 15 16 17
000
FTUS45 KFGZ 281100 RRA
TAFGCN
TAF
KGCN 281144Z 2812/0112 22014G25KT P6SM -SHSN OVC012
      TEMPO 2812/2815 3SM -SN BR OVC008
     FM281500 22014G27KT 5SM -SHSN BR SCT010 OVC020
      TEMPO 2815/2818 3SM -SHSN BR OVC010
     FM281900 22020G32KT P6SM -SHSN SCT010 BKN025
     FM010200 22014KT P6SM SCT020 BKN035=

USA.gov is the U.S. government's official web portal to all federal, state and local government web resources and services.